createdAt,value
2022-08-24T00:00:50.046Z,20.60
2022-08-24T00:05:51.555Z,20.50
2022-08-24T00:10:52.964Z,20.44
2022-08-24T00:15:55.003Z,20.40
2022-08-24T00:20:56.673Z,20.41
2022-08-24T00:25:58.028Z,20.42
2022-08-24T00:31:00.195Z,20.41
2022-08-24T00:36:01.892Z,20.43
2022-08-24T00:41:04.559Z,20.44
2022-08-24T00:46:23.257Z,20.43
2022-08-24T00:51:27.501Z,20.45
2022-08-24T00:56:34.577Z,20.50
2022-08-24T01:01:36.362Z,20.52
2022-08-24T01:06:37.792Z,20.55
2022-08-24T01:11:39.246Z,20.58
2022-08-24T01:16:59.352Z,20.57
2022-08-24T01:22:07.917Z,20.59
2022-08-24T01:27:10.344Z,20.60
2022-08-24T01:32:12.770Z,20.62
2022-08-24T01:37:14.251Z,20.64
2022-08-24T01:42:16.555Z,20.68
2022-08-24T01:47:18.343Z,20.70
2022-08-24T01:52:22.594Z,20.72
2022-08-24T01:57:26.206Z,20.74
2022-08-24T02:02:31.474Z,20.75
2022-08-24T02:07:34.314Z,20.76
2022-08-24T02:12:36.376Z,20.79
2022-08-24T02:17:38.840Z,20.75
2022-08-24T02:22:40.187Z,20.69
2022-08-24T02:27:41.581Z,20.62
2022-08-24T02:32:43.031Z,20.54
2022-08-24T02:37:44.636Z,20.45
2022-08-24T02:42:48.592Z,20.33
2022-08-24T02:47:49.949Z,20.26
2022-08-24T02:52:52.356Z,20.23
2022-08-24T02:57:54.342Z,20.21
2022-08-24T03:02:55.917Z,20.20
2022-08-24T03:07:57.545Z,20.21
2022-08-24T03:13:01.339Z,20.22
2022-08-24T03:18:02.861Z,20.20
2022-08-24T03:23:05.754Z,20.16
2022-08-24T03:28:08.675Z,20.11
2022-08-24T03:33:12.808Z,20.14
2022-08-24T03:38:14.421Z,20.17
2022-08-24T03:43:34.817Z,20.20
2022-08-24T03:48:36.584Z,20.27
2022-08-24T03:53:39.838Z,20.34
2022-08-24T03:58:45.791Z,20.39
2022-08-24T04:03:48.860Z,20.43
2022-08-24T04:08:51.170Z,20.46
2022-08-24T04:13:53.648Z,20.48
2022-08-24T04:18:59.100Z,20.47
2022-08-24T04:24:01.155Z,20.45
2022-08-24T04:29:03.200Z,20.46
2022-08-24T04:34:13.140Z,20.48
2022-08-24T04:39:15.063Z,20.48
2022-08-24T04:44:16.706Z,20.48
2022-08-24T04:49:18.242Z,20.44
2022-08-24T04:54:19.706Z,20.40
2022-08-24T04:59:29.731Z,20.43
2022-08-24T05:04:31.233Z,20.44
2022-08-24T05:09:33.128Z,20.47
2022-08-24T05:14:35.294Z,20.49
2022-08-24T05:19:36.732Z,20.51
2022-08-24T05:24:38.328Z,20.53
2022-08-24T05:29:40.028Z,20.54
2022-08-24T05:34:41.416Z,20.56
2022-08-24T05:39:44.765Z,20.55
2022-08-24T05:44:46.555Z,20.58
2022-08-24T05:49:53.557Z,20.60
2022-08-24T05:54:56.870Z,20.65
2022-08-24T06:00:00.513Z,20.68
2022-08-24T06:05:01.997Z,20.72
2022-08-24T06:10:32.848Z,20.79
2022-08-24T06:15:25.262Z,20.84
2022-08-24T06:20:26.923Z,20.90
2022-08-24T06:25:50.268Z,20.98
2022-08-24T06:31:00.349Z,21.07
2022-08-24T06:36:03.503Z,21.16
2022-08-24T06:41:07.173Z,21.28
2022-08-24T06:46:08.981Z,21.38
2022-08-24T06:51:17.227Z,21.45
2022-08-24T06:56:20.181Z,21.54
2022-08-24T07:01:23.086Z,21.63
2022-08-24T07:06:25.617Z,21.76
2022-08-24T07:11:32.199Z,21.88
2022-08-24T07:16:34.141Z,22.13
2022-08-24T07:21:37.223Z,22.39
2022-08-24T07:26:40.040Z,22.49
2022-08-24T07:31:43.331Z,22.57
2022-08-24T07:36:52.179Z,22.71
2022-08-24T07:42:12.018Z,22.80
2022-08-24T07:47:37.091Z,22.86
2022-08-24T07:52:39.213Z,22.78
2022-08-24T07:57:41.907Z,22.79
2022-08-24T08:02:46.456Z,22.80
2022-08-24T08:07:52.163Z,22.82
2022-08-24T08:12:54.129Z,22.88
2022-08-24T08:17:55.798Z,22.97
2022-08-24T08:23:16.420Z,23.10
2022-08-24T08:28:36.207Z,23.15
2022-08-24T08:33:38.270Z,23.22
2022-08-24T08:38:40.349Z,23.37
2022-08-24T08:43:44.412Z,23.47
2022-08-24T08:48:58.465Z,23.61
2022-08-24T08:54:09.321Z,23.79
2022-08-24T08:59:12.148Z,23.92
2022-08-24T09:04:25.423Z,24.02
2022-08-24T09:10:02.333Z,24.13
2022-08-24T09:15:06.257Z,24.21
2022-08-24T09:20:26.934Z,24.30
2022-08-24T09:25:31.920Z,24.34
2022-08-24T09:30:46.581Z,24.43
2022-08-24T09:35:51.640Z,24.59
2022-08-24T09:40:59.347Z,24.69
2022-08-24T09:46:27.069Z,24.80
2022-08-24T09:51:55.233Z,24.84
2022-08-24T09:57:21.749Z,25.06
2022-08-24T10:02:29.150Z,25.15
2022-08-24T10:07:43.105Z,25.07
2022-08-24T10:12:55.998Z,25.00
2022-08-24T10:18:09.812Z,25.11
2022-08-24T10:23:11.139Z,25.23
2022-08-24T10:28:12.453Z,25.41
2022-08-24T10:33:25.185Z,25.58
2022-08-24T10:38:51.233Z,25.65
2022-08-24T10:44:12.731Z,25.65
2022-08-24T10:49:27.789Z,25.68
2022-08-24T10:54:32.743Z,25.65
2022-08-24T10:59:53.105Z,25.76
2022-08-24T11:05:02.459Z,26.07
2022-08-24T11:10:06.957Z,26.18
2022-08-24T11:15:17.316Z,26.15
2022-08-24T11:20:38.090Z,26.10
2022-08-24T11:25:42.426Z,26.06
2022-08-24T11:30:44.126Z,26.00
2022-08-24T11:35:45.465Z,25.94
2022-08-24T11:40:55.767Z,25.93
2022-08-24T11:46:15.630Z,25.92
2022-08-24T11:51:27.669Z,25.95
2022-08-24T11:56:38.588Z,25.95
2022-08-24T12:01:58.661Z,25.96
2022-08-24T12:07:07.140Z,25.97
2022-08-24T12:12:08.868Z,25.96
2022-08-24T12:17:23.202Z,25.97
2022-08-24T12:22:25.869Z,26.01
2022-08-24T12:27:34.368Z,26.11
2022-08-24T12:32:39.217Z,26.33
2022-08-24T12:37:46.616Z,26.51
2022-08-24T12:42:52.488Z,26.62
2022-08-24T12:48:17.560Z,26.65
2022-08-24T12:53:29.965Z,26.72
2022-08-24T12:58:54.379Z,26.72
2022-08-24T13:04:03.638Z,26.60
2022-08-24T13:09:06.988Z,26.65
2022-08-24T13:14:26.257Z,26.82
2022-08-24T13:19:34.014Z,27.03
2022-08-24T13:24:35.372Z,27.22
2022-08-24T13:29:38.300Z,27.23
2022-08-24T13:34:41.621Z,27.33
2022-08-24T13:39:49.479Z,27.32
2022-08-24T13:45:00.171Z,27.26
2022-08-24T13:50:19.983Z,27.24
2022-08-24T13:55:30.999Z,27.22
2022-08-24T14:00:41.561Z,27.24
2022-08-24T14:05:54.283Z,27.25
2022-08-24T14:11:29.581Z,27.39
2022-08-24T14:16:58.736Z,27.40
2022-08-24T14:22:03.144Z,27.42
2022-08-24T14:27:09.862Z,27.44
2022-08-24T14:32:12.002Z,27.47
2022-08-24T14:37:13.691Z,27.43
2022-08-24T14:42:24.263Z,27.43
2022-08-24T14:47:32.262Z,27.40
2022-08-24T14:52:44.909Z,27.39
2022-08-24T14:57:49.661Z,27.52
2022-08-24T15:02:51.087Z,27.50
2022-08-24T15:07:57.740Z,27.63
2022-08-24T15:13:06.208Z,27.81
2022-08-24T15:18:28.134Z,27.75
2022-08-24T15:23:41.830Z,27.60
2022-08-24T15:28:56.410Z,27.63
2022-08-24T15:33:59.842Z,27.77
2022-08-24T15:39:04.141Z,27.93
2022-08-24T15:44:09.339Z,27.89
2022-08-24T15:49:17.133Z,27.86
2022-08-24T15:54:30.759Z,27.76
2022-08-24T15:59:52.320Z,27.63
2022-08-24T16:05:14.102Z,27.58
2022-08-24T16:10:27.669Z,27.52
2022-08-24T16:15:29.050Z,27.50
2022-08-24T16:20:32.645Z,27.44
2022-08-24T16:25:42.750Z,27.43
2022-08-24T16:30:47.529Z,27.39
2022-08-24T16:35:50.289Z,27.34
2022-08-24T16:40:51.774Z,27.30
2022-08-24T16:45:53.603Z,27.26
2022-08-24T16:50:56.224Z,27.18
2022-08-24T16:55:58.395Z,27.35
2022-08-24T17:01:00.503Z,27.96
2022-08-24T17:06:02.049Z,28.45
2022-08-24T17:11:04.849Z,28.69
2022-08-24T17:16:07.059Z,28.21
2022-08-24T17:21:08.592Z,27.76
2022-08-24T17:26:21.025Z,27.47
2022-08-24T17:31:24.739Z,27.11
2022-08-24T17:36:26.371Z,26.89
2022-08-24T17:41:34.545Z,26.73
2022-08-24T17:46:37.033Z,26.60
2022-08-24T17:51:38.581Z,26.44
2022-08-24T17:56:42.822Z,26.29
2022-08-24T18:01:44.449Z,26.13
2022-08-24T18:06:46.105Z,26.00
2022-08-24T18:11:47.486Z,25.87
2022-08-24T18:16:52.010Z,25.72
2022-08-24T18:21:58.404Z,25.61
2022-08-24T18:27:01.598Z,25.50
2022-08-24T18:32:03.504Z,25.37
2022-08-24T18:37:04.941Z,25.25
2022-08-24T18:42:07.623Z,25.13
2022-08-24T18:47:09.140Z,25.01
2022-08-24T18:52:14.372Z,24.91
2022-08-24T18:57:16.167Z,24.81
2022-08-24T19:02:31.774Z,24.75
2022-08-24T19:07:35.426Z,24.67
2022-08-24T19:12:46.936Z,24.59
2022-08-24T19:17:48.503Z,24.50
2022-08-24T19:22:49.875Z,24.42
2022-08-24T19:27:54.903Z,24.38
2022-08-24T19:32:57.135Z,24.31
2022-08-24T19:37:58.517Z,24.25
2022-08-24T19:43:01.549Z,24.17
2022-08-24T19:48:06.853Z,24.11
2022-08-24T19:53:10.125Z,24.06
2022-08-24T19:58:24.049Z,24.01
2022-08-24T20:03:25.383Z,23.95
2022-08-24T20:08:26.906Z,23.90
2022-08-24T20:13:28.558Z,23.86
2022-08-24T20:18:31.537Z,23.80
2022-08-24T20:23:33.425Z,23.74
2022-08-24T20:28:53.918Z,23.66
2022-08-24T20:33:55.346Z,23.61
2022-08-24T20:38:58.079Z,23.56
2022-08-24T20:43:59.432Z,23.51
2022-08-24T20:49:01.493Z,23.46
2022-08-24T20:54:03.099Z,23.43
2022-08-24T20:59:08.957Z,23.39
2022-08-24T21:04:10.495Z,23.37
2022-08-24T21:09:14.359Z,23.33
2022-08-24T21:14:16.110Z,23.28
2022-08-24T21:19:17.625Z,23.23
2022-08-24T21:24:19.237Z,23.13
2022-08-24T21:29:20.721Z,23.04
2022-08-24T21:34:40.629Z,22.99
2022-08-24T21:39:42.272Z,22.95
2022-08-24T21:44:44.080Z,22.92
2022-08-24T21:49:45.386Z,22.90
2022-08-24T21:54:47.145Z,22.86
2022-08-24T21:59:48.909Z,22.78
2022-08-24T22:04:56.251Z,22.70
2022-08-24T22:09:58.174Z,22.62
2022-08-24T22:15:00.323Z,22.55
2022-08-24T22:20:01.968Z,22.50
2022-08-24T22:25:04.421Z,22.45
2022-08-24T22:30:06.720Z,22.39
2022-08-24T22:35:08.369Z,22.35
2022-08-24T22:40:12.458Z,22.32
2022-08-24T22:45:14.133Z,22.30
2022-08-24T22:50:15.485Z,22.28
2022-08-24T22:55:16.959Z,22.25
2022-08-24T23:00:18.609Z,22.20
2022-08-24T23:05:20.087Z,22.17
2022-08-24T23:10:21.533Z,22.13
2022-08-24T23:15:22.864Z,22.07
2022-08-24T23:20:24.184Z,22.02
2022-08-24T23:25:26.100Z,21.94
2022-08-24T23:30:27.539Z,21.85
2022-08-24T23:35:29.331Z,21.78
2022-08-24T23:40:31.245Z,21.71
2022-08-24T23:45:32.967Z,21.64
2022-08-24T23:50:34.534Z,21.62
2022-08-24T23:55:36.448Z,21.58
